createdAt,value
2019-04-26T00:01:18.296Z,14.75
2019-04-26T00:03:48.785Z,14.57
2019-04-26T00:06:18.754Z,14.55
2019-04-26T00:08:53.538Z,14.66
2019-04-26T00:11:34.954Z,14.64
2019-04-26T00:14:23.252Z,14.45
2019-04-26T00:16:56.481Z,14.42
2019-04-26T00:19:26.351Z,14.51
2019-04-26T00:21:56.025Z,14.46
2019-04-26T00:24:28.486Z,14.43
2019-04-26T00:26:57.035Z,14.38
2019-04-26T00:29:26.533Z,14.21
2019-04-26T00:31:55.935Z,14.33
2019-04-26T00:34:25.366Z,14.36
2019-04-26T00:36:54.870Z,14.17
2019-04-26T00:39:25.052Z,14.16
2019-04-26T00:41:54.846Z,14.20
2019-04-26T00:44:24.259Z,14.29
2019-04-26T00:46:56.751Z,14.28
2019-04-26T00:49:28.335Z,14.22
2019-04-26T00:51:57.961Z,14.19
2019-04-26T00:54:28.553Z,14.10
2019-04-26T00:56:59.028Z,14.03
2019-04-26T00:59:29.316Z,14.02
2019-04-26T01:02:05.273Z,13.99
2019-04-26T01:04:34.680Z,13.99
2019-04-26T01:07:04.670Z,14.01
2019-04-26T01:09:34.531Z,14.05
2019-04-26T01:12:04.104Z,14.04
2019-04-26T01:14:33.812Z,14.00
2019-04-26T01:17:03.664Z,13.90
2019-04-26T01:19:34.045Z,13.91
2019-04-26T01:22:07.372Z,13.86
2019-04-26T01:24:38.813Z,13.93
2019-04-26T01:27:09.935Z,13.83
2019-04-26T01:29:40.746Z,13.74
2019-04-26T01:32:12.935Z,13.72
2019-04-26T01:34:44.156Z,13.68
2019-04-26T01:37:14.227Z,13.58
2019-04-26T01:39:49.411Z,13.55
2019-04-26T01:42:36.763Z,13.72
2019-04-26T01:45:12.529Z,13.52
2019-04-26T01:47:41.956Z,13.34
2019-04-26T01:50:12.473Z,13.32
2019-04-26T01:52:44.594Z,13.27
2019-04-26T01:55:14.562Z,13.45
2019-04-26T01:57:44.551Z,13.50
2019-04-26T02:00:28.145Z,13.45
2019-04-26T02:03:01.213Z,13.38
2019-04-26T02:05:31.986Z,13.31
2019-04-26T02:08:01.518Z,13.31
2019-04-26T02:10:31.429Z,13.28
2019-04-26T02:13:01.623Z,13.25
2019-04-26T02:15:33.571Z,13.19
2019-04-26T02:18:04.151Z,13.10
2019-04-26T02:21:08.016Z,12.99
2019-04-26T02:23:44.403Z,12.95
2019-04-26T02:26:33.327Z,12.97
2019-04-26T02:29:06.058Z,12.88
2019-04-26T02:31:37.788Z,12.83
2019-04-26T02:34:08.381Z,12.82
2019-04-26T02:36:56.295Z,12.87
2019-04-26T02:39:22.401Z,12.90
2019-04-26T02:41:55.114Z,12.91
2019-04-26T02:44:31.354Z,13.00
2019-04-26T02:47:37.275Z,13.07
2019-04-26T02:50:11.625Z,13.13
2019-04-26T02:53:00.365Z,13.16
2019-04-26T02:55:50.633Z,13.14
2019-04-26T02:58:23.115Z,13.13
2019-04-26T03:00:53.918Z,13.05
2019-04-26T03:03:25.319Z,13.07
2019-04-26T03:05:56.449Z,13.08
2019-04-26T03:08:27.950Z,13.05
2019-04-26T03:11:10.999Z,13.00
2019-04-26T03:13:54.569Z,12.99
2019-04-26T03:16:35.352Z,12.98
2019-04-26T03:19:37.767Z,12.93
2019-04-26T03:22:15.093Z,12.87
2019-04-26T03:25:00.214Z,12.90
2019-04-26T03:27:48.762Z,12.80
2019-04-26T03:30:33.345Z,12.83
2019-04-26T03:33:22.969Z,12.89
2019-04-26T03:36:15.077Z,12.80
2019-04-26T03:38:55.867Z,12.88
2019-04-26T03:41:36.609Z,12.78
2019-04-26T03:44:13.878Z,12.82
2019-04-26T03:46:50.772Z,12.77
2019-04-26T03:49:49.514Z,12.77
2019-04-26T03:52:44.115Z,12.82
2019-04-26T03:56:00.535Z,12.90
2019-04-26T03:58:59.883Z,12.92
2019-04-26T04:01:35.412Z,12.88
2019-04-26T04:04:24.661Z,12.95
2019-04-26T04:07:04.322Z,13.01
2019-04-26T04:09:30.345Z,13.07
2019-04-26T04:12:16.592Z,13.18
2019-04-26T04:14:59.673Z,13.34
2019-04-26T04:17:48.276Z,13.37
2019-04-26T04:21:08.448Z,13.46
2019-04-26T04:24:11.672Z,13.52
2019-04-26T04:27:09.137Z,13.64
2019-04-26T04:29:55.502Z,13.69
2019-04-26T04:32:34.838Z,13.81
2019-04-26T04:35:08.350Z,13.83
2019-04-26T04:38:04.248Z,13.84
2019-04-26T04:40:47.301Z,13.78
2019-04-26T04:43:33.948Z,13.83
2019-04-26T04:46:37.480Z,13.89
2019-04-26T04:49:44.126Z,13.81
2019-04-26T04:52:28.536Z,13.99
2019-04-26T04:55:09.724Z,14.05
2019-04-26T04:57:52.478Z,14.00
2019-04-26T05:01:09.647Z,14.12
2019-04-26T05:04:22.717Z,14.29
2019-04-26T05:07:25.067Z,14.29
2019-04-26T05:10:03.652Z,14.23
2019-04-26T05:12:39.558Z,14.31
2019-04-26T05:15:36.259Z,14.42
2019-04-26T05:19:03.227Z,14.39
2019-04-26T05:21:55.089Z,14.43
2019-04-26T05:25:09.488Z,14.55
2019-04-26T05:28:00.851Z,14.60
2019-04-26T05:31:10.610Z,14.66
2019-04-26T05:34:20.829Z,14.60
2019-04-26T05:37:37.176Z,14.68
2019-04-26T05:40:36.968Z,14.73
2019-04-26T05:43:41.400Z,14.77
2019-04-26T05:46:50.213Z,14.76
2019-04-26T05:50:10.150Z,14.82
2019-04-26T05:54:05.497Z,14.95
2019-04-26T05:56:48.543Z,15.19
2019-04-26T05:59:26.426Z,15.39
2019-04-26T06:02:41.079Z,15.51
2019-04-26T06:05:52.307Z,15.76
2019-04-26T06:09:23.721Z,16.21
2019-04-26T06:12:04.012Z,16.51
2019-04-26T06:15:29.511Z,16.75
2019-04-26T06:18:43.212Z,16.94
2019-04-26T06:21:36.320Z,17.09
2019-04-26T06:25:09.499Z,17.24
2019-04-26T06:28:03.971Z,17.37
2019-04-26T06:30:59.500Z,17.38
2019-04-26T06:33:41.514Z,17.38
2019-04-26T06:36:18.471Z,17.44
2019-04-26T06:39:32.970Z,17.55
2019-04-26T06:42:19.029Z,17.70
2019-04-26T06:45:50.478Z,17.79
2019-04-26T06:48:42.424Z,17.97
2019-04-26T06:51:24.522Z,18.19
2019-04-26T06:54:34.331Z,18.32
2019-04-26T06:57:40.820Z,18.48
2019-04-26T07:00:19.215Z,18.71
2019-04-26T07:03:24.539Z,18.85
2019-04-26T07:06:00.875Z,19.02
2019-04-26T07:08:57.366Z,19.16
2019-04-26T07:12:30.198Z,19.25
2019-04-26T07:15:29.769Z,19.48
2019-04-26T07:18:13.899Z,19.70
2019-04-26T07:21:00.731Z,19.89
2019-04-26T07:24:43.910Z,20.07
2019-04-26T07:27:42.995Z,20.10
2019-04-26T07:30:40.859Z,20.34
2019-04-26T07:33:33.735Z,20.44
2019-04-26T07:36:29.503Z,20.41
2019-04-26T07:39:33.878Z,20.49
2019-04-26T07:42:30.189Z,20.68
2019-04-26T07:45:20.233Z,20.85
2019-04-26T07:48:42.388Z,20.92
2019-04-26T07:52:08.505Z,21.08
2019-04-26T07:55:13.371Z,21.29
2019-04-26T07:58:09.069Z,21.42
2019-04-26T08:00:47.487Z,21.55
2019-04-26T08:03:37.987Z,21.72
2019-04-26T08:06:22.277Z,21.84
2019-04-26T08:09:06.142Z,21.98
2019-04-26T08:11:50.002Z,22.17
2019-04-26T08:14:25.415Z,22.37
2019-04-26T08:17:24.944Z,22.45
2019-04-26T08:20:16.057Z,22.51
2019-04-26T08:22:48.684Z,22.72
2019-04-26T08:25:20.357Z,22.90
2019-04-26T08:27:53.047Z,22.80
2019-04-26T08:30:24.023Z,23.09
2019-04-26T08:32:57.724Z,23.55
2019-04-26T08:35:30.364Z,24.15
2019-04-26T08:38:16.395Z,24.91
2019-04-26T08:40:41.267Z,25.79
2019-04-26T08:43:31.787Z,26.83
2019-04-26T08:46:22.406Z,28.96
2019-04-26T08:49:15.165Z,28.96
2019-04-26T08:51:47.746Z,29.95
2019-04-26T08:54:26.739Z,31.33
2019-04-26T08:57:02.812Z,32.66
2019-04-26T08:59:37.102Z,34.14
2019-04-26T09:02:37.951Z,35.38
2019-04-26T09:05:37.824Z,36.43
2019-04-26T09:08:10.263Z,36.97
2019-04-26T09:10:43.208Z,37.75
2019-04-26T09:13:16.824Z,38.39
2019-04-26T09:16:02.679Z,39.70
2019-04-26T09:18:42.483Z,40.64
2019-04-26T09:21:03.446Z,41.29
2019-04-26T09:23:51.946Z,41.26
2019-04-26T09:26:46.624Z,41.84
2019-04-26T09:29:30.396Z,41.70
2019-04-26T09:32:09.324Z,41.98
2019-04-26T09:34:41.298Z,42.33
2019-04-26T09:37:10.748Z,42.62
2019-04-26T09:39:41.608Z,42.05
2019-04-26T09:42:20.797Z,42.57
2019-04-26T09:44:56.961Z,42.46
2019-04-26T09:47:34.945Z,42.94
2019-04-26T09:50:22.453Z,43.50
2019-04-26T09:52:52.465Z,43.79
2019-04-26T09:55:34.538Z,43.68
2019-04-26T09:57:53.500Z,43.39
2019-04-26T10:00:28.032Z,44.24
2019-04-26T10:02:57.824Z,44.49
2019-04-26T10:05:27.459Z,43.95
2019-04-26T10:07:56.933Z,42.33
2019-04-26T10:10:31.099Z,42.03
2019-04-26T10:13:23.100Z,40.41
2019-04-26T10:16:10.410Z,41.42
2019-04-26T10:18:41.870Z,42.75
2019-04-26T10:21:11.301Z,42.35
2019-04-26T10:23:40.708Z,43.16
2019-04-26T10:26:10.230Z,43.80
2019-04-26T10:28:39.775Z,43.39
2019-04-26T10:31:09.226Z,43.18
2019-04-26T10:33:38.616Z,43.76
2019-04-26T10:36:08.069Z,43.69
2019-04-26T10:38:37.569Z,43.16
2019-04-26T10:41:07.230Z,44.37
2019-04-26T10:43:36.627Z,45.26
2019-04-26T10:46:07.770Z,45.45
2019-04-26T10:48:37.270Z,43.73
2019-04-26T10:51:07.272Z,43.71
2019-04-26T10:54:05.802Z,44.59
2019-04-26T10:57:00.942Z,44.10
2019-04-26T10:59:40.057Z,43.72
2019-04-26T11:02:12.746Z,43.34
2019-04-26T11:04:42.895Z,42.67
2019-04-26T11:07:12.508Z,43.40
2019-04-26T11:09:41.996Z,44.21
2019-04-26T11:12:14.579Z,44.42
2019-04-26T11:14:44.086Z,43.36
2019-04-26T11:17:16.036Z,43.23
2019-04-26T11:19:44.913Z,44.26
2019-04-26T11:22:14.383Z,44.14
2019-04-26T11:24:43.878Z,42.64
2019-04-26T11:27:13.325Z,43.46
2019-04-26T11:29:53.243Z,44.10
2019-04-26T11:32:13.915Z,44.41
2019-04-26T11:34:43.580Z,44.07
2019-04-26T11:37:13.442Z,44.39
2019-04-26T11:39:44.363Z,43.59
2019-04-26T11:42:13.809Z,43.21
2019-04-26T11:44:44.728Z,43.49
2019-04-26T11:47:14.494Z,43.01
2019-04-26T11:49:44.117Z,42.79
2019-04-26T11:52:13.824Z,43.26
2019-04-26T11:54:43.220Z,43.13
2019-04-26T11:57:13.648Z,43.40
2019-04-26T11:59:43.251Z,43.88
2019-04-26T12:02:16.181Z,43.06
2019-04-26T12:05:15.209Z,41.95
2019-04-26T12:07:49.775Z,42.18
2019-04-26T12:10:19.293Z,42.11
2019-04-26T12:12:51.889Z,40.87
2019-04-26T12:15:30.032Z,40.53
2019-04-26T12:17:58.294Z,40.59
2019-04-26T12:20:26.399Z,41.60
2019-04-26T12:22:53.455Z,41.95
2019-04-26T12:25:22.847Z,42.01
2019-04-26T12:27:53.549Z,41.18
2019-04-26T12:30:26.556Z,41.62
2019-04-26T12:32:54.698Z,42.07
2019-04-26T12:35:24.099Z,42.04
2019-04-26T12:37:54.780Z,41.95
2019-04-26T12:40:24.907Z,42.85
2019-04-26T12:42:54.350Z,42.90
2019-04-26T12:45:57.866Z,42.10
2019-04-26T12:48:27.313Z,40.53
2019-04-26T12:50:56.819Z,39.19
2019-04-26T12:53:26.755Z,38.04
2019-04-26T12:55:58.423Z,36.51
2019-04-26T12:58:28.101Z,35.18
2019-04-26T13:00:57.543Z,33.95
2019-04-26T13:03:29.306Z,33.44
2019-04-26T13:05:59.118Z,34.02
2019-04-26T13:08:28.668Z,33.60
2019-04-26T13:11:29.370Z,33.38
2019-04-26T13:14:03.027Z,33.32
2019-04-26T13:17:01.201Z,33.44
2019-04-26T13:19:28.641Z,33.37
2019-04-26T13:21:58.089Z,34.36
2019-04-26T13:24:27.534Z,34.70
2019-04-26T13:26:57.030Z,35.46
2019-04-26T13:29:27.227Z,36.29
2019-04-26T13:31:57.647Z,36.76
2019-04-26T13:34:27.138Z,36.31
2019-04-26T13:36:59.138Z,35.77
2019-04-26T13:39:27.795Z,35.49
2019-04-26T13:42:04.555Z,35.15
2019-04-26T13:44:45.976Z,35.06
2019-04-26T13:47:34.290Z,35.28
2019-04-26T13:50:10.748Z,35.46
2019-04-26T13:52:40.253Z,34.52
2019-04-26T13:55:09.797Z,33.75
2019-04-26T13:57:40.196Z,32.96
2019-04-26T14:00:12.368Z,32.41
2019-04-26T14:02:41.909Z,32.06
2019-04-26T14:05:15.311Z,31.06
2019-04-26T14:07:42.817Z,30.70
2019-04-26T14:10:12.464Z,30.37
2019-04-26T14:12:41.959Z,30.37
2019-04-26T14:15:11.504Z,30.20
2019-04-26T14:17:40.886Z,30.18
2019-04-26T14:20:11.598Z,30.07
2019-04-26T14:22:47.690Z,29.93
2019-04-26T14:25:19.935Z,29.98
2019-04-26T14:27:51.796Z,29.41
2019-04-26T14:30:21.665Z,29.41
2019-04-26T14:32:53.150Z,29.47
2019-04-26T14:35:22.744Z,29.11
2019-04-26T14:37:52.299Z,29.07
2019-04-26T14:40:22.280Z,28.94
2019-04-26T14:43:05.629Z,28.57
2019-04-26T14:45:24.237Z,28.59
2019-04-26T14:47:53.827Z,28.55
2019-04-26T14:50:23.478Z,28.50
2019-04-26T14:52:53.034Z,28.41
2019-04-26T14:55:22.905Z,28.18
2019-04-26T14:57:54.030Z,28.13
2019-04-26T15:00:29.137Z,27.94
2019-04-26T15:03:17.314Z,28.01
2019-04-26T15:05:57.794Z,27.98
2019-04-26T15:08:27.236Z,27.81
2019-04-26T15:11:00.998Z,27.86
2019-04-26T15:13:28.291Z,27.75
2019-04-26T15:15:57.739Z,27.78
2019-04-26T15:18:29.346Z,27.78
2019-04-26T15:20:58.694Z,27.76
2019-04-26T15:23:28.155Z,27.60
2019-04-26T15:25:58.629Z,27.45
2019-04-26T15:28:28.392Z,27.14
2019-04-26T15:30:57.861Z,27.06
2019-04-26T15:33:27.394Z,27.07
2019-04-26T15:35:56.952Z,27.04
2019-04-26T15:38:26.448Z,26.99
2019-04-26T15:41:26.939Z,26.92
2019-04-26T15:44:15.318Z,26.79
2019-04-26T15:46:55.731Z,26.61
2019-04-26T15:49:53.455Z,26.27
2019-04-26T15:52:22.914Z,26.23
2019-04-26T15:54:58.138Z,25.97
2019-04-26T15:57:24.489Z,25.94
2019-04-26T15:59:58.038Z,25.77
2019-04-26T16:02:26.469Z,25.73
2019-04-26T16:04:56.168Z,25.61
2019-04-26T16:07:28.740Z,25.58
2019-04-26T16:09:57.558Z,25.65
2019-04-26T16:12:27.316Z,25.51
2019-04-26T16:14:56.837Z,25.36
2019-04-26T16:17:26.585Z,25.28
2019-04-26T16:20:00.035Z,25.27
2019-04-26T16:22:30.072Z,25.21
2019-04-26T16:25:03.973Z,25.31
2019-04-26T16:27:32.417Z,25.19
2019-04-26T16:30:09.725Z,25.00
2019-04-26T16:33:13.477Z,24.91
2019-04-26T16:35:43.443Z,24.79
2019-04-26T16:38:34.946Z,24.78
2019-04-26T16:41:05.130Z,24.72
2019-04-26T16:43:40.008Z,24.43
2019-04-26T16:46:06.400Z,24.14
2019-04-26T16:48:36.171Z,24.08
2019-04-26T16:51:08.464Z,23.92
2019-04-26T16:53:52.092Z,23.81
2019-04-26T16:56:08.117Z,23.79
2019-04-26T16:58:42.234Z,23.50
2019-04-26T17:01:10.313Z,23.38
2019-04-26T17:03:45.228Z,23.37
2019-04-26T17:06:14.191Z,23.26
2019-04-26T17:08:49.110Z,23.29
2019-04-26T17:11:14.075Z,23.31
2019-04-26T17:13:51.218Z,23.18
2019-04-26T17:16:14.816Z,23.01
2019-04-26T17:18:44.314Z,22.86
2019-04-26T17:21:17.615Z,22.80
2019-04-26T17:24:12.191Z,22.77
2019-04-26T17:26:45.785Z,22.57
2019-04-26T17:29:15.321Z,22.39
2019-04-26T17:31:45.042Z,22.42
2019-04-26T17:34:14.491Z,22.37
2019-04-26T17:36:46.324Z,22.35
2019-04-26T17:39:17.189Z,22.29
2019-04-26T17:41:50.661Z,22.16
2019-04-26T17:44:20.589Z,22.03
2019-04-26T17:46:56.235Z,21.92
2019-04-26T17:49:21.460Z,21.99
2019-04-26T17:51:57.713Z,21.80
2019-04-26T17:54:41.632Z,21.73
2019-04-26T17:56:53.716Z,21.77
2019-04-26T17:59:33.349Z,21.62
2019-04-26T18:02:00.879Z,21.53
2019-04-26T18:04:33.735Z,21.40
2019-04-26T18:07:03.898Z,21.29
2019-04-26T18:09:42.949Z,21.18
2019-04-26T18:12:03.336Z,21.11
2019-04-26T18:14:32.093Z,21.12
2019-04-26T18:17:08.026Z,21.07
2019-04-26T18:19:54.373Z,21.00
2019-04-26T18:22:40.065Z,20.91
2019-04-26T18:25:12.434Z,20.83
2019-04-26T18:27:43.398Z,20.75
2019-04-26T18:30:14.282Z,20.69
2019-04-26T18:32:47.742Z,20.58
2019-04-26T18:35:16.940Z,20.43
2019-04-26T18:37:46.917Z,20.35
2019-04-26T18:40:16.511Z,20.27
2019-04-26T18:42:45.916Z,20.22
2019-04-26T18:45:21.258Z,20.17
2019-04-26T18:47:46.777Z,20.12
2019-04-26T18:50:16.759Z,20.09
2019-04-26T18:53:19.571Z,20.04
2019-04-26T18:55:49.412Z,20.01
2019-04-26T18:58:19.158Z,19.96
2019-04-26T19:00:48.720Z,19.99
2019-04-26T19:03:19.142Z,20.00
2019-04-26T19:05:48.798Z,19.92
2019-04-26T19:08:22.373Z,19.83
2019-04-26T19:10:59.226Z,19.79
2019-04-26T19:13:36.612Z,19.64
2019-04-26T19:16:18.179Z,19.63
2019-04-26T19:18:57.600Z,19.57
2019-04-26T19:21:40.265Z,19.54
2019-04-26T19:24:17.132Z,19.47
2019-04-26T19:26:44.201Z,19.39
2019-04-26T19:29:18.213Z,19.25
2019-04-26T19:31:44.063Z,19.29
2019-04-26T19:34:13.667Z,19.23
2019-04-26T19:36:43.148Z,19.14
2019-04-26T19:39:22.438Z,19.13
2019-04-26T19:41:52.055Z,19.14
2019-04-26T19:44:22.148Z,19.11
2019-04-26T19:47:06.479Z,19.01
2019-04-26T19:49:53.694Z,18.90
2019-04-26T19:52:45.150Z,18.82
2019-04-26T19:55:54.854Z,18.53
2019-04-26T19:58:25.392Z,18.75
2019-04-26T20:00:55.306Z,18.71
2019-04-26T20:03:28.118Z,18.76
2019-04-26T20:05:57.530Z,18.74
2019-04-26T20:08:29.320Z,18.67
2019-04-26T20:10:58.284Z,18.60
2019-04-26T20:13:27.711Z,18.58
2019-04-26T20:16:01.791Z,18.41
2019-04-26T20:18:38.991Z,18.53
2019-04-26T20:21:12.573Z,18.46
2019-04-26T20:23:42.558Z,18.37
2019-04-26T20:26:09.397Z,18.39
2019-04-26T20:28:38.900Z,18.31
2019-04-26T20:31:37.555Z,18.21
2019-04-26T20:34:10.908Z,18.09
2019-04-26T20:36:41.642Z,18.04
2019-04-26T20:39:12.441Z,18.13
2019-04-26T20:41:41.614Z,18.10
2019-04-26T20:44:13.440Z,18.06
2019-04-26T20:46:43.201Z,18.08
2019-04-26T20:49:12.720Z,18.02
2019-04-26T20:51:46.079Z,18.00
2019-04-26T20:54:16.338Z,17.98
2019-04-26T20:56:46.253Z,17.99
2019-04-26T20:59:16.631Z,17.94
2019-04-26T21:02:00.447Z,17.93
2019-04-26T21:04:34.961Z,17.97
2019-04-26T21:06:49.647Z,17.98
2019-04-26T21:09:19.608Z,17.97
2019-04-26T21:11:49.391Z,17.97
2019-04-26T21:14:18.986Z,17.94
2019-04-26T21:16:49.498Z,17.87
2019-04-26T21:19:20.299Z,17.80
2019-04-26T21:21:52.185Z,17.73
2019-04-26T21:24:23.643Z,17.72
2019-04-26T21:27:25.920Z,17.63
2019-04-26T21:30:08.507Z,17.68
2019-04-26T21:32:59.160Z,17.65
2019-04-26T21:35:33.698Z,17.58
2019-04-26T21:38:07.244Z,17.52
2019-04-26T21:40:45.331Z,17.41
2019-04-26T21:43:14.840Z,17.34
2019-04-26T21:45:44.423Z,17.29
2019-04-26T21:48:14.258Z,17.16
2019-04-26T21:50:44.459Z,17.04
2019-04-26T21:53:14.020Z,16.94
2019-04-26T21:55:43.559Z,17.04
2019-04-26T21:58:14.172Z,17.06
2019-04-26T22:01:03.059Z,17.00
2019-04-26T22:03:32.958Z,16.92
2019-04-26T22:06:04.048Z,16.82
2019-04-26T22:08:36.047Z,16.72
2019-04-26T22:11:05.671Z,16.63
2019-04-26T22:13:44.975Z,16.59
2019-04-26T22:16:34.283Z,16.56
2019-04-26T22:19:12.710Z,16.52
2019-04-26T22:22:05.804Z,16.45
2019-04-26T22:24:34.894Z,16.46
2019-04-26T22:27:04.556Z,16.49
2019-04-26T22:29:34.059Z,16.54
2019-04-26T22:32:03.806Z,16.51
2019-04-26T22:34:33.295Z,16.54
2019-04-26T22:37:11.522Z,16.55
2019-04-26T22:39:39.862Z,16.53
2019-04-26T22:42:05.958Z,16.46
2019-04-26T22:44:43.703Z,16.48
2019-04-26T22:47:25.220Z,16.39
2019-04-26T22:49:54.759Z,16.29
2019-04-26T22:52:24.559Z,16.28
2019-04-26T22:54:54.186Z,16.23
2019-04-26T22:57:23.810Z,16.21
2019-04-26T22:59:53.640Z,16.17
2019-04-26T23:02:27.572Z,16.13
2019-04-26T23:04:56.104Z,16.20
2019-04-26T23:07:26.550Z,16.11
2019-04-26T23:09:55.960Z,16.00
2019-04-26T23:12:47.176Z,15.91
2019-04-26T23:15:47.892Z,15.83
2019-04-26T23:18:51.476Z,15.82
2019-04-26T23:21:25.056Z,15.81
2019-04-26T23:23:54.636Z,15.81
2019-04-26T23:26:24.168Z,15.84
2019-04-26T23:28:53.683Z,15.87
2019-04-26T23:31:23.743Z,15.85
2019-04-26T23:33:53.879Z,15.83
2019-04-26T23:36:24.168Z,15.85
2019-04-26T23:38:53.821Z,15.78
2019-04-26T23:41:23.693Z,15.87
2019-04-26T23:43:56.825Z,15.86
2019-04-26T23:46:25.935Z,15.82
2019-04-26T23:48:55.647Z,15.78
2019-04-26T23:51:26.156Z,15.81
2019-04-26T23:53:58.153Z,15.76
2019-04-26T23:56:27.617Z,15.74
2019-04-26T23:58:57.073Z,15.71
